sensor_id;sensor_type;location;lat;lon;timestamp;pressure;altitude;pressure_sealevel;temperature;humidity
10202;BME280;5143;42.584;23.164;2023-09-19T00:00:22;93032.63;;;12.21;100.00
10202;BME280;5143;42.584;23.164;2023-09-19T00:02:54;93026.84;;;12.14;100.00
10202;BME280;5143;42.584;23.164;2023-09-19T00:05:23;93023.81;;;12.12;100.00
10202;BME280;5143;42.584;23.164;2023-09-19T00:07:53;93029.06;;;12.15;100.00
10202;BME280;5143;42.584;23.164;2023-09-19T00:10:20;93027.84;;;12.16;100.00
10202;BME280;5143;42.584;23.164;2023-09-19T00:12:49;93012.53;;;12.04;100.00
10202;BME280;5143;42.584;23.164;2023-09-19T00:15:17;93026.84;;;12.14;100.00
10202;BME280;5143;42.584;23.164;2023-09-19T00:17:45;93025.94;;;12.02;100.00
10202;BME280;5143;42.584;23.164;2023-09-19T00:20:13;93011.44;;;11.96;100.00
10202;BME280;5143;42.584;23.164;2023-09-19T00:22:43;93029.91;;;12.01;100.00
10202;BME280;5143;42.584;23.164;2023-09-19T00:25:10;93016.22;;;12.01;100.00
10202;BME280;5143;42.584;23.164;2023-09-19T00:27:38;93019.91;;;11.98;100.00
10202;BME280;5143;42.584;23.164;2023-09-19T00:30:08;93012.22;;;11.97;100.00
10202;BME280;5143;42.584;23.164;2023-09-19T00:32:39;93006.88;;;11.88;100.00
10202;BME280;5143;42.584;23.164;2023-09-19T00:35:08;93015.63;;;11.92;100.00
10202;BME280;5143;42.584;23.164;2023-09-19T00:37:36;93013.22;;;11.79;100.00
10202;BME280;5143;42.584;23.164;2023-09-19T00:40:06;93025.34;;;11.72;100.00
10202;BME280;5143;42.584;23.164;2023-09-19T00:42:36;93021.16;;;11.77;100.00
10202;BME280;5143;42.584;23.164;2023-09-19T00:45:05;93019.66;;;11.76;100.00
10202;BME280;5143;42.584;23.164;2023-09-19T00:47:32;93029.09;;;11.75;100.00
10202;BME280;5143;42.584;23.164;2023-09-19T00:49:59;93029.19;;;11.80;100.00
10202;BME280;5143;42.584;23.164;2023-09-19T00:52:27;93023.22;;;11.82;100.00
10202;BME280;5143;42.584;23.164;2023-09-19T00:54:54;93019.38;;;11.74;100.00
10202;BME280;5143;42.584;23.164;2023-09-19T00:57:22;93016.13;;;11.70;100.00
10202;BME280;5143;42.584;23.164;2023-09-19T00:59:50;93013.91;;;11.74;100.00
10202;BME280;5143;42.584;23.164;2023-09-19T01:02:18;93025.34;;;11.72;100.00
10202;BME280;5143;42.584;23.164;2023-09-19T01:04:46;93015.63;;;11.71;100.00
10202;BME280;5143;42.584;23.164;2023-09-19T01:07:13;93013.38;;;11.70;100.00
10202;BME280;5143;42.584;23.164;2023-09-19T01:09:42;93011.09;;;11.68;100.00
10202;BME280;5143;42.584;23.164;2023-09-19T01:12:11;93015.38;;;11.69;100.00
10202;BME280;5143;42.584;23.164;2023-09-19T01:15:01;93011.22;;;11.59;100.00
10202;BME280;5143;42.584;23.164;2023-09-19T01:17:35;93015.00;;;11.62;100.00
10202;BME280;5143;42.584;23.164;2023-09-19T01:20:24;93022.22;;;11.65;100.00
10202;BME280;5143;42.584;23.164;2023-09-19T01:23:07;92988.47;;;11.48;100.00
10202;BME280;5143;42.584;23.164;2023-09-19T01:26:05;93016.22;;;11.61;100.00
10202;BME280;5143;42.584;23.164;2023-09-19T01:28:52;93018.81;;;11.50;100.00
10202;BME280;5143;42.584;23.164;2023-09-19T01:31:24;93015.59;;;11.51;100.00
10202;BME280;5143;42.584;23.164;2023-09-19T01:33:58;93000.75;;;11.38;100.00
10202;BME280;5143;42.584;23.164;2023-09-19T01:36:30;93009.59;;;11.47;100.00
10202;BME280;5143;42.584;23.164;2023-09-19T01:38:59;93016.34;;;11.52;100.00
10202;BME280;5143;42.584;23.164;2023-09-19T01:41:41;93016.34;;;11.52;100.00
10202;BME280;5143;42.584;23.164;2023-09-19T01:44:18;93017.59;;;11.51;100.00
10202;BME280;5143;42.584;23.164;2023-09-19T01:46:50;93017.72;;;11.42;100.00
10202;BME280;5143;42.584;23.164;2023-09-19T01:49:22;93022.59;;;11.38;100.00
10202;BME280;5143;42.584;23.164;2023-09-19T01:52:02;93018.59;;;11.33;100.00
10202;BME280;5143;42.584;23.164;2023-09-19T01:54:33;93015.66;;;11.37;100.00
10202;BME280;5143;42.584;23.164;2023-09-19T01:57:09;93021.13;;;11.37;100.00
10202;BME280;5143;42.584;23.164;2023-09-19T01:59:45;93018.94;;;11.41;100.00
10202;BME280;5143;42.584;23.164;2023-09-19T02:02:14;93024.66;;;11.43;100.00
10202;BME280;5143;42.584;23.164;2023-09-19T02:04:42;93027.53;;;11.34;100.00
10202;BME280;5143;42.584;23.164;2023-09-19T02:07:08;93017.81;;;11.33;100.00
10202;BME280;5143;42.584;23.164;2023-09-19T02:09:35;93002.09;;;11.27;100.00
10202;BME280;5143;42.584;23.164;2023-09-19T02:12:05;92995.81;;;11.21;100.00
10202;BME280;5143;42.584;23.164;2023-09-19T02:14:32;93005.63;;;11.13;100.00
10202;BME280;5143;42.584;23.164;2023-09-19T02:16:59;93000.06;;;11.22;100.00
10202;BME280;5143;42.584;23.164;2023-09-19T02:19:27;92999.09;;;11.25;100.00
10202;BME280;5143;42.584;23.164;2023-09-19T02:21:55;92988.28;;;11.16;100.00
10202;BME280;5143;42.584;23.164;2023-09-19T02:24:21;92991.59;;;11.20;100.00
10202;BME280;5143;42.584;23.164;2023-09-19T02:26:52;92995.28;;;11.17;100.00
10202;BME280;5143;42.584;23.164;2023-09-19T02:29:20;92994.59;;;11.22;100.00
10202;BME280;5143;42.584;23.164;2023-09-19T02:31:47;92999.72;;;11.15;100.00
10202;BME280;5143;42.584;23.164;2023-09-19T02:34:14;93001.94;;;11.16;100.00
10202;BME280;5143;42.584;23.164;2023-09-19T02:36:43;92984.94;;;11.07;100.00
10202;BME280;5143;42.584;23.164;2023-09-19T02:39:11;92998.28;;;11.19;100.00
10202;BME280;5143;42.584;23.164;2023-09-19T02:41:38;92996.00;;;11.18;100.00
10202;BME280;5143;42.584;23.164;2023-09-19T02:44:07;92983.09;;;11.18;100.00
10202;BME280;5143;42.584;23.164;2023-09-19T02:46:34;92982.81;;;11.16;100.00
10202;BME280;5143;42.584;23.164;2023-09-19T02:49:01;92957.13;;;11.08;100.00
10202;BME280;5143;42.584;23.164;2023-09-19T02:51:30;92973.88;;;11.16;100.00
10202;BME280;5143;42.584;23.164;2023-09-19T02:53:59;92974.13;;;11.18;100.00
10202;BME280;5143;42.584;23.164;2023-09-19T02:56:25;92965.31;;;11.08;100.00
10202;BME280;5143;42.584;23.164;2023-09-19T02:58:52;92964.56;;;11.08;100.00
10202;BME280;5143;42.584;23.164;2023-09-19T03:01:20;92972.00;;;11.07;100.00
10202;BME280;5143;42.584;23.164;2023-09-19T03:03:47;92956.19;;;11.11;100.00
10202;BME280;5143;42.584;23.164;2023-09-19T03:06:15;92951.00;;;11.13;100.00
10202;BME280;5143;42.584;23.164;2023-09-19T03:08:45;92952.22;;;11.12;100.00
10202;BME280;5143;42.584;23.164;2023-09-19T03:11:15;92945.00;;;11.09;100.00
10202;BME280;5143;42.584;23.164;2023-09-19T03:13:44;92949.22;;;11.10;100.00
10202;BME280;5143;42.584;23.164;2023-09-19T03:16:11;92948.94;;;11.08;100.00
10202;BME280;5143;42.584;23.164;2023-09-19T03:18:40;92960.06;;;11.05;100.00
10202;BME280;5143;42.584;23.164;2023-09-19T03:21:07;92964.22;;;11.00;100.00
10202;BME280;5143;42.584;23.164;2023-09-19T03:23:33;92973.94;;;11.01;100.00
10202;BME280;5143;42.584;23.164;2023-09-19T03:26:02;92968.94;;;11.00;100.00
10202;BME280;5143;42.584;23.164;2023-09-19T03:28:33;92970.16;;;10.99;100.00
10202;BME280;5143;42.584;23.164;2023-09-19T03:31:00;92971.03;;;10.90;100.00
10202;BME280;5143;42.584;23.164;2023-09-19T03:33:27;92967.25;;;10.88;100.00
10202;BME280;5143;42.584;23.164;2023-09-19T03:35:57;92981.28;;;10.95;100.00
10202;BME280;5143;42.584;23.164;2023-09-19T03:38:24;92979.31;;;10.96;100.00
10202;BME280;5143;42.584;23.164;2023-09-19T03:40:51;92973.00;;;10.90;100.00
10202;BME280;5143;42.584;23.164;2023-09-19T03:43:18;92979.69;;;10.89;100.00
10202;BME280;5143;42.584;23.164;2023-09-19T03:45:47;92979.59;;;10.83;100.00
10202;BME280;5143;42.584;23.164;2023-09-19T03:48:14;92981.50;;;10.77;100.00
10202;BME280;5143;42.584;23.164;2023-09-19T03:50:41;92984.31;;;10.83;100.00
10202;BME280;5143;42.584;23.164;2023-09-19T03:53:09;92986.59;;;10.84;100.00
10202;BME280;5143;42.584;23.164;2023-09-19T03:55:36;92982.06;;;10.81;100.00
10202;BME280;5143;42.584;23.164;2023-09-19T03:58:04;92974.56;;;10.76;100.00
10202;BME280;5143;42.584;23.164;2023-09-19T04:00:31;92990.25;;;10.81;100.00
10202;BME280;5143;42.584;23.164;2023-09-19T04:02:59;92985.75;;;10.78;100.00
10202;BME280;5143;42.584;23.164;2023-09-19T04:05:31;92996.75;;;10.84;100.00
10202;BME280;5143;42.584;23.164;2023-09-19T04:07:57;93002.03;;;10.87;100.00
10202;BME280;5143;42.584;23.164;2023-09-19T04:10:24;92998.53;;;10.87;100.00
10202;BME280;5143;42.584;23.164;2023-09-19T04:12:51;93006.91;;;10.83;100.00
10202;BME280;5143;42.584;23.164;2023-09-19T04:15:19;93001.47;;;10.83;100.00
10202;BME280;5143;42.584;23.164;2023-09-19T04:17:47;93001.91;;;10.96;100.00
10202;BME280;5143;42.584;23.164;2023-09-19T04:20:16;93003.31;;;11.06;100.00
10202;BME280;5143;42.584;23.164;2023-09-19T04:22:44;93000.66;;;11.12;100.00
10202;BME280;5143;42.584;23.164;2023-09-19T04:25:11;92992.81;;;11.19;100.00
10202;BME280;5143;42.584;23.164;2023-09-19T04:27:38;92991.97;;;11.13;100.00
10202;BME280;5143;42.584;23.164;2023-09-19T04:30:07;92986.66;;;11.24;100.00
10202;BME280;5143;42.584;23.164;2023-09-19T04:32:37;92984.34;;;11.38;100.00
10202;BME280;5143;42.584;23.164;2023-09-19T04:35:05;92984.03;;;11.50;100.00
10202;BME280;5143;42.584;23.164;2023-09-19T04:37:36;92979.50;;;11.67;100.00
10202;BME280;5143;42.584;23.164;2023-09-19T04:40:04;92976.03;;;11.87;100.00
10202;BME280;5143;42.584;23.164;2023-09-19T04:42:32;92969.19;;;11.97;100.00
10202;BME280;5143;42.584;23.164;2023-09-19T04:45:00;92965.97;;;12.24;100.00
10202;BME280;5143;42.584;23.164;2023-09-19T04:47:27;92962.94;;;12.22;100.00
10202;BME280;5143;42.584;23.164;2023-09-19T04:49:53;92962.38;;;12.38;100.00
10202;BME280;5143;42.584;23.164;2023-09-19T04:52:20;92966.81;;;12.62;100.00
10202;BME280;5143;42.584;23.164;2023-09-19T04:54:48;92958.50;;;12.82;100.00
10202;BME280;5143;42.584;23.164;2023-09-19T04:57:15;92949.28;;;13.16;100.00
10202;BME280;5143;42.584;23.164;2023-09-19T04:59:42;92945.22;;;13.48;100.00
10202;BME280;5143;42.584;23.164;2023-09-19T05:02:09;92947.59;;;13.78;100.00
10202;BME280;5143;42.584;23.164;2023-09-19T05:04:37;92946.69;;;14.08;100.00
10202;BME280;5143;42.584;23.164;2023-09-19T05:07:04;92951.72;;;14.27;100.00
10202;BME280;5143;42.584;23.164;2023-09-19T05:09:31;92959.69;;;14.19;100.00
10202;BME280;5143;42.584;23.164;2023-09-19T05:12:01;92951.94;;;14.23;100.00
10202;BME280;5143;42.584;23.164;2023-09-19T05:14:27;92959.19;;;14.26;100.00
10202;BME280;5143;42.584;23.164;2023-09-19T05:16:55;92959.28;;;14.76;100.00
10202;BME280;5143;42.584;23.164;2023-09-19T05:19:21;92953.00;;;15.20;100.00
10202;BME280;5143;42.584;23.164;2023-09-19T05:21:48;92957.56;;;15.91;100.00
10202;BME280;5143;42.584;23.164;2023-09-19T05:24:15;92954.94;;;16.97;100.00
10202;BME280;5143;42.584;23.164;2023-09-19T05:26:42;92945.44;;;18.33;100.00
10202;BME280;5143;42.584;23.164;2023-09-19T05:29:10;92955.09;;;19.72;100.00
10202;BME280;5143;42.584;23.164;2023-09-19T05:31:38;92960.75;;;20.66;100.00
10202;BME280;5143;42.584;23.164;2023-09-19T05:34:06;92948.22;;;20.51;100.00
10202;BME280;5143;42.584;23.164;2023-09-19T05:36:33;92948.13;;;20.18;100.00
10202;BME280;5143;42.584;23.164;2023-09-19T05:39:00;92943.25;;;19.84;100.00
10202;BME280;5143;42.584;23.164;2023-09-19T05:41:27;92938.47;;;19.85;100.00
10202;BME280;5143;42.584;23.164;2023-09-19T05:43:53;92945.28;;;19.84;100.00
10202;BME280;5143;42.584;23.164;2023-09-19T05:46:22;92939.72;;;19.45;100.00
10202;BME280;5143;42.584;23.164;2023-09-19T05:48:48;92931.13;;;18.84;100.00
10202;BME280;5143;42.584;23.164;2023-09-19T05:51:15;92934.72;;;19.43;100.00
10202;BME280;5143;42.584;23.164;2023-09-19T05:53:43;92943.13;;;20.29;100.00
10202;BME280;5143;42.584;23.164;2023-09-19T05:56:13;92947.78;;;21.15;100.00
10202;BME280;5143;42.584;23.164;2023-09-19T05:58:40;92934.34;;;21.75;100.00
10202;BME280;5143;42.584;23.164;2023-09-19T06:01:09;92941.13;;;22.16;100.00
10202;BME280;5143;42.584;23.164;2023-09-19T06:03:38;92939.25;;;22.62;97.52
10202;BME280;5143;42.584;23.164;2023-09-19T06:06:04;92941.84;;;22.60;95.46
10202;BME280;5143;42.584;23.164;2023-09-19T06:08:32;92941.88;;;22.16;97.28
10202;BME280;5143;42.584;23.164;2023-09-19T06:10:59;92936.06;;;22.07;95.99
10202;BME280;5143;42.584;23.164;2023-09-19T06:13:27;92932.69;;;22.01;97.61
10202;BME280;5143;42.584;23.164;2023-09-19T06:15:55;92931.88;;;22.21;97.95
10202;BME280;5143;42.584;23.164;2023-09-19T06:18:23;92933.03;;;22.33;98.29
10202;BME280;5143;42.584;23.164;2023-09-19T06:20:53;92937.44;;;22.21;97.84
10202;BME280;5143;42.584;23.164;2023-09-19T06:23:21;92926.38;;;22.00;98.98
10202;BME280;5143;42.584;23.164;2023-09-19T06:25:48;92924.31;;;21.93;99.17
10202;BME280;5143;42.584;23.164;2023-09-19T06:28:15;92922.09;;;21.71;99.71
10202;BME280;5143;42.584;23.164;2023-09-19T06:30:45;92931.72;;;21.21;100.00
10202;BME280;5143;42.584;23.164;2023-09-19T06:33:13;92934.03;;;21.09;100.00
10202;BME280;5143;42.584;23.164;2023-09-19T06:35:40;92927.47;;;21.20;100.00
10202;BME280;5143;42.584;23.164;2023-09-19T06:38:08;92914.47;;;21.15;100.00
10202;BME280;5143;42.584;23.164;2023-09-19T06:40:38;92924.88;;;21.22;100.00
10202;BME280;5143;42.584;23.164;2023-09-19T06:43:09;92931.94;;;21.23;100.00
10202;BME280;5143;42.584;23.164;2023-09-19T06:45:36;92927.00;;;20.75;100.00
10202;BME280;5143;42.584;23.164;2023-09-19T06:48:04;92947.09;;;21.22;100.00
10202;BME280;5143;42.584;23.164;2023-09-19T06:50:30;92941.16;;;21.05;100.00
10202;BME280;5143;42.584;23.164;2023-09-19T06:52:58;92951.38;;;20.89;100.00
10202;BME280;5143;42.584;23.164;2023-09-19T06:55:27;92952.72;;;20.96;100.00
10202;BME280;5143;42.584;23.164;2023-09-19T06:57:56;92941.81;;;21.11;100.00
10202;BME280;5143;42.584;23.164;2023-09-19T07:00:24;92939.66;;;21.17;100.00
10202;BME280;5143;42.584;23.164;2023-09-19T07:02:57;92948.81;;;20.91;100.00
10202;BME280;5143;42.584;23.164;2023-09-19T07:05:26;92945.53;;;20.80;100.00
10202;BME280;5143;42.584;23.164;2023-09-19T07:07:54;92948.47;;;20.95;100.00
10202;BME280;5143;42.584;23.164;2023-09-19T07:10:22;92948.59;;;21.23;100.00
10202;BME280;5143;42.584;23.164;2023-09-19T07:12:56;92940.84;;;21.50;100.00
10202;BME280;5143;42.584;23.164;2023-09-19T07:15:24;92951.22;;;21.49;100.00
10202;BME280;5143;42.584;23.164;2023-09-19T07:17:51;92930.72;;;21.11;100.00
10202;BME280;5143;42.584;23.164;2023-09-19T07:20:19;92946.00;;;21.25;100.00
10202;BME280;5143;42.584;23.164;2023-09-19T07:22:46;92946.53;;;21.44;100.00
10202;BME280;5143;42.584;23.164;2023-09-19T07:25:14;92958.53;;;21.39;100.00
10202;BME280;5143;42.584;23.164;2023-09-19T07:27:41;92962.47;;;21.44;100.00
10202;BME280;5143;42.584;23.164;2023-09-19T07:30:11;92959.69;;;21.23;100.00
10202;BME280;5143;42.584;23.164;2023-09-19T07:32:38;92956.84;;;21.36;100.00
10202;BME280;5143;42.584;23.164;2023-09-19T07:35:06;92957.84;;;21.67;100.00
10202;BME280;5143;42.584;23.164;2023-09-19T07:37:33;92962.22;;;21.62;100.00
10202;BME280;5143;42.584;23.164;2023-09-19T07:40:01;92954.53;;;21.27;100.00
10202;BME280;5143;42.584;23.164;2023-09-19T07:42:32;92957.03;;;21.38;100.00
10202;BME280;5143;42.584;23.164;2023-09-19T07:45:00;92959.06;;;21.58;100.00
10202;BME280;5143;42.584;23.164;2023-09-19T07:47:28;92963.59;;;21.48;100.00
10202;BME280;5143;42.584;23.164;2023-09-19T07:49:55;92948.25;;;21.75;100.00
10202;BME280;5143;42.584;23.164;2023-09-19T07:52:22;92956.38;;;21.73;100.00
10202;BME280;5143;42.584;23.164;2023-09-19T07:54:49;92952.78;;;21.86;100.00
10202;BME280;5143;42.584;23.164;2023-09-19T07:57:16;92954.38;;;22.02;100.00
10202;BME280;5143;42.584;23.164;2023-09-19T07:59:42;92960.06;;;21.89;100.00
10202;BME280;5143;42.584;23.164;2023-09-19T08:02:09;92958.50;;;21.60;100.00
10202;BME280;5143;42.584;23.164;2023-09-19T08:04:42;92958.91;;;21.64;100.00
10202;BME280;5143;42.584;23.164;2023-09-19T08:07:11;92951.41;;;21.51;100.00
10202;BME280;5143;42.584;23.164;2023-09-19T08:09:38;92939.38;;;21.28;100.00
10202;BME280;5143;42.584;23.164;2023-09-19T08:12:06;92938.66;;;21.84;100.00
10202;BME280;5143;42.584;23.164;2023-09-19T08:14:35;92935.31;;;22.06;100.00
10202;BME280;5143;42.584;23.164;2023-09-19T08:17:02;92936.59;;;22.41;100.00
10202;BME280;5143;42.584;23.164;2023-09-19T08:19:30;92938.59;;;22.69;99.75
10202;BME280;5143;42.584;23.164;2023-09-19T08:21:59;92939.88;;;22.32;100.00
10202;BME280;5143;42.584;23.164;2023-09-19T08:24:29;92921.94;;;22.99;99.53
10202;BME280;5143;42.584;23.164;2023-09-19T08:26:56;92936.56;;;22.77;94.78
10202;BME280;5143;42.584;23.164;2023-09-19T08:29:23;92943.13;;;22.59;94.82
10202;BME280;5143;42.584;23.164;2023-09-19T08:31:53;92936.00;;;22.86;95.13
10202;BME280;5143;42.584;23.164;2023-09-19T08:34:21;92944.19;;;22.91;95.47
10202;BME280;5143;42.584;23.164;2023-09-19T08:36:49;92951.69;;;23.27;94.77
10202;BME280;5143;42.584;23.164;2023-09-19T08:39:18;92948.56;;;23.83;91.27
10202;BME280;5143;42.584;23.164;2023-09-19T08:41:45;92949.69;;;23.80;89.35
10202;BME280;5143;42.584;23.164;2023-09-19T08:44:12;92949.28;;;23.76;90.49
10202;BME280;5143;42.584;23.164;2023-09-19T08:46:41;92946.69;;;23.93;89.70
10202;BME280;5143;42.584;23.164;2023-09-19T08:49:14;92947.56;;;24.26;90.41
10202;BME280;5143;42.584;23.164;2023-09-19T08:51:53;92945.13;;;24.38;88.38
10202;BME280;5143;42.584;23.164;2023-09-19T08:54:25;92932.66;;;24.31;85.97
10202;BME280;5143;42.584;23.164;2023-09-19T08:56:54;92941.38;;;24.43;86.07
10202;BME280;5143;42.584;23.164;2023-09-19T08:59:22;92932.59;;;24.54;85.50
10202;BME280;5143;42.584;23.164;2023-09-19T09:01:53;92941.06;;;24.24;86.68
10202;BME280;5143;42.584;23.164;2023-09-19T09:04:20;92942.97;;;24.14;85.87
10202;BME280;5143;42.584;23.164;2023-09-19T09:06:49;92941.75;;;24.39;86.07
10202;BME280;5143;42.584;23.164;2023-09-19T09:09:19;92945.75;;;24.69;85.42
10202;BME280;5143;42.584;23.164;2023-09-19T09:11:49;92947.59;;;24.74;83.69
10202;BME280;5143;42.584;23.164;2023-09-19T09:14:18;92927.88;;;24.72;83.50
10202;BME280;5143;42.584;23.164;2023-09-19T09:16:46;92931.94;;;24.86;84.14
10202;BME280;5143;42.584;23.164;2023-09-19T09:19:14;92919.06;;;24.43;84.55
10202;BME280;5143;42.584;23.164;2023-09-19T09:21:49;92913.84;;;24.47;85.14
10202;BME280;5143;42.584;23.164;2023-09-19T09:24:26;92909.28;;;24.67;84.95
10202;BME280;5143;42.584;23.164;2023-09-19T09:26:56;92903.22;;;24.45;86.42
10202;BME280;5143;42.584;23.164;2023-09-19T09:29:41;92900.16;;;24.19;87.96
10202;BME280;5143;42.584;23.164;2023-09-19T09:32:19;92898.16;;;23.96;88.48
10202;BME280;5143;42.584;23.164;2023-09-19T09:34:48;92887.88;;;24.22;86.98
10202;BME280;5143;42.584;23.164;2023-09-19T09:37:15;92898.63;;;24.33;86.54
10202;BME280;5143;42.584;23.164;2023-09-19T09:39:54;92883.47;;;24.11;86.95
10202;BME280;5143;42.584;23.164;2023-09-19T09:42:32;92893.63;;;24.24;87.52
10202;BME280;5143;42.584;23.164;2023-09-19T09:45:14;92886.56;;;24.30;88.92
10202;BME280;5143;42.584;23.164;2023-09-19T09:47:42;92891.44;;;24.62;86.25
10202;BME280;5143;42.584;23.164;2023-09-19T09:50:24;92892.13;;;25.35;83.71
10202;BME280;5143;42.584;23.164;2023-09-19T09:52:55;92894.69;;;25.65;83.45
10202;BME280;5143;42.584;23.164;2023-09-19T09:55:28;92893.16;;;25.47;81.56
10202;BME280;5143;42.584;23.164;2023-09-19T09:58:18;92880.66;;;25.48;82.11
10202;BME280;5143;42.584;23.164;2023-09-19T10:00:55;92888.78;;;25.78;81.38
10202;BME280;5143;42.584;23.164;2023-09-19T10:03:35;92888.97;;;25.97;80.87
10202;BME280;5143;42.584;23.164;2023-09-19T10:06:06;92876.19;;;26.28;80.59
10202;BME280;5143;42.584;23.164;2023-09-19T10:09:00;92879.91;;;26.58;79.26
10202;BME280;5143;42.584;23.164;2023-09-19T10:11:40;92879.88;;;26.75;79.01
10202;BME280;5143;42.584;23.164;2023-09-19T10:14:11;92888.31;;;26.58;77.27
10202;BME280;5143;42.584;23.164;2023-09-19T10:16:41;92878.03;;;26.43;79.19
10202;BME280;5143;42.584;23.164;2023-09-19T10:19:15;92887.69;;;26.76;77.27
10202;BME280;5143;42.584;23.164;2023-09-19T10:21:43;92888.81;;;26.64;78.71
10202;BME280;5143;42.584;23.164;2023-09-19T10:24:13;92883.38;;;26.92;77.03
10202;BME280;5143;42.584;23.164;2023-09-19T10:26:42;92879.13;;;26.74;76.85
10202;BME280;5143;42.584;23.164;2023-09-19T10:29:13;92890.88;;;26.12;76.57
10202;BME280;5143;42.584;23.164;2023-09-19T10:31:42;92885.91;;;25.86;77.11
10202;BME280;5143;42.584;23.164;2023-09-19T10:34:14;92885.41;;;25.79;78.99
10202;BME280;5143;42.584;23.164;2023-09-19T10:36:44;92880.47;;;25.88;79.37
10202;BME280;5143;42.584;23.164;2023-09-19T10:39:14;92878.63;;;25.90;77.57
10202;BME280;5143;42.584;23.164;2023-09-19T10:41:49;92870.03;;;25.46;80.74
10202;BME280;5143;42.584;23.164;2023-09-19T10:44:21;92840.41;;;25.68;78.92
10202;BME280;5143;42.584;23.164;2023-09-19T10:46:50;92855.06;;;25.93;77.52
10202;BME280;5143;42.584;23.164;2023-09-19T10:49:18;92853.47;;;25.48;79.20
10202;BME280;5143;42.584;23.164;2023-09-19T10:51:46;92857.69;;;25.91;79.65
10202;BME280;5143;42.584;23.164;2023-09-19T10:54:17;92852.63;;;26.14;78.77
10202;BME280;5143;42.584;23.164;2023-09-19T10:56:48;92850.63;;;26.07;77.83
10202;BME280;5143;42.584;23.164;2023-09-19T10:59:18;92840.59;;;25.87;79.38
10202;BME280;5143;42.584;23.164;2023-09-19T11:01:48;92839.63;;;26.09;79.33
10202;BME280;5143;42.584;23.164;2023-09-19T11:04:24;92845.28;;;26.02;76.12
10202;BME280;5143;42.584;23.164;2023-09-19T11:07:02;92852.09;;;26.08;77.78
10202;BME280;5143;42.584;23.164;2023-09-19T11:09:49;92853.53;;;26.17;75.50
10202;BME280;5143;42.584;23.164;2023-09-19T11:12:51;92838.88;;;26.70;75.16
10202;BME280;5143;42.584;23.164;2023-09-19T11:18:53;92840.56;;;26.56;76.25
10202;BME280;5143;42.584;23.164;2023-09-19T11:21:41;92834.34;;;26.13;76.22
10202;BME280;5143;42.584;23.164;2023-09-19T11:24:32;92816.53;;;26.35;76.04
10202;BME280;5143;42.584;23.164;2023-09-19T11:27:14;92828.50;;;26.63;74.88
10202;BME280;5143;42.584;23.164;2023-09-19T11:29:43;92814.22;;;26.42;75.63
10202;BME280;5143;42.584;23.164;2023-09-19T11:32:10;92822.75;;;26.61;74.65
10202;BME280;5143;42.584;23.164;2023-09-19T11:34:43;92813.72;;;26.79;73.81
10202;BME280;5143;42.584;23.164;2023-09-19T11:40:47;92810.81;;;27.23;71.80
10202;BME280;5143;42.584;23.164;2023-09-19T11:43:32;92808.97;;;27.45;71.07
10202;BME280;5143;42.584;23.164;2023-09-19T11:46:06;92801.75;;;27.42;71.60
10202;BME280;5143;42.584;23.164;2023-09-19T11:48:35;92804.88;;;27.10;71.40
10202;BME280;5143;42.584;23.164;2023-09-19T11:51:18;92795.22;;;26.93;71.49
10202;BME280;5143;42.584;23.164;2023-09-19T11:53:50;92795.84;;;27.02;71.06
10202;BME280;5143;42.584;23.164;2023-09-19T11:56:18;92786.22;;;26.68;72.54
10202;BME280;5143;42.584;23.164;2023-09-19T11:58:46;92788.75;;;26.74;72.30
10202;BME280;5143;42.584;23.164;2023-09-19T12:01:21;92791.31;;;26.79;73.41
10202;BME280;5143;42.584;23.164;2023-09-19T12:03:54;92802.34;;;27.04;72.16
10202;BME280;5143;42.584;23.164;2023-09-19T12:06:24;92793.38;;;27.15;71.82
10202;BME280;5143;42.584;23.164;2023-09-19T12:08:51;92787.72;;;26.96;72.78
10202;BME280;5143;42.584;23.164;2023-09-19T12:11:20;92785.72;;;26.53;71.09
10202;BME280;5143;42.584;23.164;2023-09-19T12:13:49;92772.41;;;26.44;71.62
10202;BME280;5143;42.584;23.164;2023-09-19T12:16:17;92771.44;;;26.58;72.46
10202;BME280;5143;42.584;23.164;2023-09-19T12:18:48;92759.50;;;26.58;71.94
10202;BME280;5143;42.584;23.164;2023-09-19T12:21:30;92767.63;;;26.63;72.15
10202;BME280;5143;42.584;23.164;2023-09-19T12:24:05;92757.09;;;26.45;70.43
10202;BME280;5143;42.584;23.164;2023-09-19T12:26:38;92755.47;;;26.24;72.70
10202;BME280;5143;42.584;23.164;2023-09-19T12:29:11;92755.59;;;26.00;71.67
10202;BME280;5143;42.584;23.164;2023-09-19T12:31:47;92747.81;;;25.81;72.99
10202;BME280;5143;42.584;23.164;2023-09-19T12:34:16;92743.75;;;25.74;72.14
10202;BME280;5143;42.584;23.164;2023-09-19T12:36:46;92733.91;;;25.56;72.63
10202;BME280;5143;42.584;23.164;2023-09-19T12:39:22;92739.25;;;25.62;73.04
10202;BME280;5143;42.584;23.164;2023-09-19T12:41:50;92731.88;;;25.57;71.04
10202;BME280;5143;42.584;23.164;2023-09-19T12:44:18;92731.75;;;25.82;72.53
10202;BME280;5143;42.584;23.164;2023-09-19T12:46:45;92733.16;;;25.90;74.23
10202;BME280;5143;42.584;23.164;2023-09-19T12:49:16;92731.75;;;25.82;73.87
10202;BME280;5143;42.584;23.164;2023-09-19T12:51:46;92736.88;;;25.58;73.35
10202;BME280;5143;42.584;23.164;2023-09-19T12:54:13;92742.31;;;25.73;72.07
10202;BME280;5143;42.584;23.164;2023-09-19T12:56:43;92727.75;;;25.58;73.00
10202;BME280;5143;42.584;23.164;2023-09-19T12:59:12;92731.03;;;25.81;72.79
10202;BME280;5143;42.584;23.164;2023-09-19T13:01:40;92727.81;;;25.67;71.59
10202;BME280;5143;42.584;23.164;2023-09-19T13:04:11;92716.91;;;25.62;73.31
10202;BME280;5143;42.584;23.164;2023-09-19T13:06:40;92722.47;;;25.79;71.38
10202;BME280;5143;42.584;23.164;2023-09-19T13:09:11;92722.38;;;25.87;71.46
10202;BME280;5143;42.584;23.164;2023-09-19T13:11:40;92722.09;;;26.09;72.37
10202;BME280;5143;42.584;23.164;2023-09-19T13:14:19;92707.88;;;25.98;72.60
10202;BME280;5143;42.584;23.164;2023-09-19T13:16:54;92705.00;;;25.88;71.32